Date,TemperatureHighF,TemperatureAvgF,TemperatureLowF,DewpointHighF,DewpointAvgF,DewpointLowF,HumidityHigh,HumidityAvg,HumidityLow,PressureMaxIn,PressureMinIn,WindSpeedMaxMPH,WindSpeedAvgMPH,GustSpeedMaxMPH,PrecipitationSumIn
2013-5-1,84,75,63,22,15,6,10,10,10,30.01,29.90,0,0,0,0.00
2013-5-2,83,70,56,21,15,4,24,12,10,30.11,29.99,0,0,0,0.00
2013-5-3,81,67,51,19,13,3,26,13,10,30.10,29.71,0,0,0,0.00
2013-5-4,84,70,52,28,17,5,24,14,10,29.73,29.64,0,0,0,0.00
2013-5-5,83,71,61,37,20,6,39,15,10,29.99,29.71,0,0,0,0.13
2013-5-6,79,66,55,46,32,12,70,32,10,30.02,29.25,0,0,0,0.00
2013-5-7,79,66,53,40,26,13,54,25,10,30.03,29.92,0,0,0,0.00
2013-5-8,80,65,49,36,24,12,55,24,10,30.04,29.95,0,0,0,0.00
2013-5-9,80,66,49,40,26,12,64,28,10,30.03,29.92,0,0,0,0.00
2013-5-10,79,65,52,42,27,14,51,28,10,30.11,29.98,0,0,0,0.00
2013-5-11,80,66,49,38,31,18,62,32,11,30.15,30.05,0,0,0,0.00
2013-5-12,81,68,51,39,27,12,60,27,10,30.18,30.04,0,0,0,0.00
2013-5-13,86,72,54,33,22,8,38,17,10,30.15,30.02,0,0,0,0.00
2013-5-14,89,74,56,36,25,15,40,19,10,30.08,29.94,0,0,0,0.00
2013-5-15,89,77,60,32,25,17,34,16,10,30.09,29.96,0,0,0,0.00
2013-5-16,90,78,62,28,21,11,24,12,10,30.03,29.90,0,0,0,0.00
2013-5-17,88,75,57,28,21,13,31,14,10,30.00,29.91,0,0,0,0.00
2013-5-18,85,73,62,34,23,13,31,17,10,30.01,29.93,0,0,0,0.00
2013-5-19,87,72,52,36,24,9,51,21,10,30.00,29.86,0,0,0,0.00
2013-5-20,87,73,56,36,22,7,40,17,10,29.99,29.86,0,0,0,0.00
2013-5-21,90,74,55,26,17,7,22,12,10,30.01,29.87,0,0,0,0.00
2013-5-22,93,77,57,28,18,6,20,11,10,29.94,29.82,0,0,0,0.00
2013-5-23,92,77,57,32,20,8,25,13,10,29.95,29.86,0,0,0,0.00
2013-5-24,93,77,58,40,26,11,45,19,10,30.02,29.84,0,0,0,0.00
2013-5-25,91,75,55,28,20,4,29,13,10,29.98,29.89,0,0,0,0.00
2013-5-26,91,76,54,27,19,8,28,12,10,29.97,29.90,0,0,0,0.01
2013-5-27,92,75,56,28,19,7,27,13,10,29.93,29.78,0,0,0,0.00
2013-5-28,90,75,56,26,17,6,21,11,10,29.84,29.67,0,0,0,0.00
2013-5-31,95,84,74,36,30,21,24,15,10,29.98,29.90,0,0,0,0.66